Time;durP1;ratioP1;P1;durP2;ratioP2;P2;SDS_P1;SDS_P2;PMS_P1;PMS_P2;Temp;Humidity;BMP_temperature;BMP_pressure;BME280_temperature;BME280_humidity;BME280_pressure;Samples;Min_cycle;Max_cycle;Signal;HPM_P1;HPM_P2
2022/12/20 00:00:20;;;;;;;5.82;2.72;;;10.30;86.20;;;;;;9172785;19;20487;-61
2022/12/20 00:03:24;;;;;;;5.80;3.08;;;10.30;86.20;;;;;;9178502;19;20022;-63
2022/12/20 00:06:30;;;;;;;7.25;2.85;;;10.30;86.20;;;;;;9179474;19;20015;-60
2022/12/20 00:09:33;;;;;;;4.82;2.85;;;10.30;86.20;;;;;;9179799;19;20042;-62
2022/12/20 00:12:37;;;;;;;4.22;2.72;;;10.30;86.20;;;;;;9179942;19;20019;-62
2022/12/20 00:15:41;;;;;;;6.68;3.05;;;10.30;86.20;;;;;;9176619;19;20487;-62
2022/12/20 00:18:45;;;;;;;4.30;2.83;;;10.30;86.20;;;;;;9179857;19;20014;-61
2022/12/20 00:21:50;;;;;;;;;;;10.30;86.20;;;;;;9180190;19;20021;-62
2022/12/20 00:24:54;;;;;;;13.85;3.00;;;10.40;86.20;;;;;;9179788;19;20332;-62
2022/12/20 00:27:58;;;;;;;4.30;2.67;;;10.40;86.20;;;;;;9175841;19;20018;-61
2022/12/20 00:31:01;;;;;;;4.93;2.85;;;10.40;86.20;;;;;;9179821;19;20018;-64
2022/12/20 00:34:05;;;;;;;7.07;3.17;;;10.40;86.20;;;;;;9177703;19;20069;-61
2022/12/20 00:37:11;;;;;;;4.38;3.05;;;10.40;86.20;;;;;;9179037;19;20402;-62
2022/12/20 00:40:15;;;;;;;6.25;2.53;;;10.40;86.30;;;;;;9178524;19;20454;-61
2022/12/20 00:43:19;;;;;;;;;;;10.40;86.20;;;;;;9179798;19;20018;-60
2022/12/20 00:46:23;;;;;;;5.05;2.60;;;10.40;86.20;;;;;;9177691;19;19941;-62
2022/12/20 00:49:28;;;;;;;4.22;2.53;;;10.40;86.20;;;;;;9176714;19;20452;-63
2022/12/20 00:52:34;;;;;;;;;;;10.40;86.20;;;;;;9180255;19;20007;-62
2022/12/20 00:55:42;;;;;;;6.85;3.00;;;10.40;86.20;;;;;;9174215;19;19923;-62
2022/12/20 00:58:47;;;;;;;8.15;3.55;;;10.50;86.20;;;;;;9177688;19;20038;-60
2022/12/20 01:01:51;;;;;;;8.52;2.85;;;10.40;86.20;;;;;;9171894;19;20018;-60
2022/12/20 01:04:56;;;;;;;7.88;2.60;;;10.50;86.20;;;;;;9177910;19;20022;-61
2022/12/20 01:08:02;;;;;;;;;;;10.50;86.20;;;;;;9179312;19;20015;-60
2022/12/20 01:11:08;;;;;;;7.82;3.17;;;10.50;86.20;;;;;;9175964;19;19926;-59
2022/12/20 01:14:15;;;;;;;7.35;2.88;;;10.50;86.20;;;;;;9176327;19;20022;-62
2022/12/20 01:17:19;;;;;;;4.80;2.28;;;10.50;86.20;;;;;;9173364;19;20543;-61
2022/12/20 01:20:23;;;;;;;7.32;3.03;;;10.50;86.20;;;;;;9176283;19;20018;-62
2022/12/20 01:23:29;;;;;;;4.72;2.70;;;10.50;86.30;;;;;;9174572;19;20014;-63
2022/12/20 01:26:33;;;;;;;4.55;2.45;;;10.50;86.30;;;;;;9177866;19;20518;-64
2022/12/20 01:29:37;;;;;;;4.55;2.63;;;10.50;86.20;;;;;;9176768;19;20011;-60
2022/12/20 01:32:41;;;;;;;3.20;1.80;;;10.50;86.20;;;;;;9177184;19;20364;-63
2022/12/20 01:35:55;;;;;;;4.97;2.22;;;10.60;86.30;;;;;;9174159;19;20048;-63
2022/12/20 01:39:02;;;;;;;3.75;2.40;;;10.60;86.20;;;;;;9176971;19;20022;-63
2022/12/20 01:42:06;;;;;;;3.03;2.00;;;10.60;86.20;;;;;;9174502;19;20025;-61
2022/12/20 01:45:21;;;;;;;5.28;2.22;;;10.60;86.20;;;;;;9176588;19;20439;-64
2022/12/20 01:48:27;;;;;;;2.30;1.90;;;10.60;86.20;;;;;;9176852;19;20478;-62
2022/12/20 01:51:34;;;;;;;2.75;2.00;;;10.70;86.20;;;;;;9176492;19;20018;-62
2022/12/20 01:54:43;;;;;;;5.43;2.42;;;10.70;86.20;;;;;;9175920;19;20025;-62
2022/12/20 01:57:50;;;;;;;2.95;2.08;;;10.70;86.20;;;;;;9172888;19;20019;-61
2022/12/20 02:00:54;;;;;;;4.60;1.92;;;10.70;86.10;;;;;;9168957;19;20039;-62
2022/12/20 02:03:58;;;;;;;;;;;10.80;86.20;;;;;;9177062;19;20042;-62
2022/12/20 02:07:04;;;;;;;5.18;2.38;;;10.80;86.10;;;;;;9176109;19;19937;-62
2022/12/20 02:10:12;;;;;;;4.32;2.25;;;10.80;86.10;;;;;;9175075;19;20019;-61
2022/12/20 02:13:26;;;;;;;2.88;1.95;;;10.80;86.10;;;;;;9175004;19;20031;-62
2022/12/20 02:16:34;;;;;;;3.85;2.22;;;10.80;86.00;;;;;;9172330;19;20034;-60
2022/12/20 02:19:59;;;;;;;7.22;2.13;;;10.80;86.00;;;;;;9173716;19;20019;-62
2022/12/20 02:23:30;;;;;;;7.03;2.03;;;10.90;86.10;;;;;;9175366;19;20010;-59
2022/12/20 02:27:00;;;;;;;3.50;1.95;;;10.90;86.00;;;;;;9172147;19;20025;-62
2022/12/20 02:30:15;;;;;;;4.30;1.92;;;10.90;86.00;;;;;;9182852;19;20007;-65
2022/12/20 02:33:22;;;;;;;5.60;3.28;;;11.00;86.00;;;;;;9181367;19;20018;-63
2022/12/20 02:36:26;;;;;;;2.58;1.90;;;11.00;86.00;;;;;;9178972;19;20351;-62
2022/12/20 02:39:31;;;;;;;3.90;2.10;;;11.00;86.00;;;;;;9180260;19;20025;-62
2022/12/20 02:42:36;;;;;;;4.93;2.28;;;11.00;86.00;;;;;;9179896;19;20078;-62
2022/12/20 02:45:40;;;;;;;8.32;2.40;;;11.00;86.00;;;;;;9180158;19;20034;-62
2022/12/20 02:48:44;;;;;;;6.40;2.38;;;11.10;86.00;;;;;;9179226;19;20090;-65
2022/12/20 02:51:51;;;;;;;5.75;2.25;;;11.10;86.00;;;;;;9181529;19;20021;-63
2022/12/20 02:54:56;;;;;;;5.05;2.08;;;11.10;86.00;;;;;;9179720;19;20433;-64
2022/12/20 02:58:06;;;;;;;7.25;2.30;;;11.10;86.00;;;;;;9180365;19;20044;-62
2022/12/20 03:01:17;;;;;;;5.57;2.63;;;11.10;86.00;;;;;;9176319;19;20014;-61
2022/12/20 03:04:24;;;;;;;6.18;2.30;;;11.10;85.90;;;;;;9182039;19;20384;-62
2022/12/20 03:07:30;;;;;;;8.90;2.85;;;11.10;86.00;;;;;;9181938;19;20031;-62
2022/12/20 03:10:34;;;;;;;8.02;2.33;;;11.10;86.00;;;;;;9180082;19;20015;-64
2022/12/20 03:13:38;;;;;;;;;;;11.10;86.00;;;;;;9180319;19;20102;-61
2022/12/20 03:16:47;;;;;;;7.47;2.45;;;11.00;86.00;;;;;;9177623;19;19919;-62
2022/12/20 03:19:51;;;;;;;6.10;2.55;;;11.10;86.10;;;;;;9181561;19;20018;-61
2022/12/20 03:22:54;;;;;;;;;;;11.00;86.10;;;;;;9181021;19;20014;-64
2022/12/20 03:25:58;;;;;;;5.38;2.58;;;11.00;86.10;;;;;;9179654;19;19918;-62
2022/12/20 03:29:10;;;;;;;6.00;2.58;;;11.10;86.10;;;;;;9180120;19;20321;-61
2022/12/20 03:32:16;;;;;;;4.28;2.33;;;11.00;86.20;;;;;;9178745;19;20026;-63
2022/12/20 03:35:21;;;;;;;3.58;2.35;;;11.00;86.20;;;;;;9179506;19;20018;-61
2022/12/20 03:38:24;;;;;;;3.58;2.28;;;11.00;86.30;;;;;;9180567;19;20014;-62
2022/12/20 03:41:29;;;;;;;7.05;2.60;;;11.00;86.30;;;;;;9180161;19;20030;-65
2022/12/20 03:44:33;;;;;;;5.35;2.53;;;11.00;86.40;;;;;;9179080;19;20014;-62
2022/12/20 03:47:39;;;;;;;5.97;2.63;;;11.00;86.50;;;;;;9178372;19;20017;-63
2022/12/20 03:50:43;;;;;;;5.07;2.70;;;11.00;86.50;;;;;;9180248;19;20026;-63
2022/12/20 03:53:46;;;;;;;4.25;2.85;;;11.00;86.60;;;;;;9180379;19;20494;-62
2022/12/20 03:56:51;;;;;;;8.23;2.72;;;11.00;86.70;;;;;;9175623;19;20018;-63
2022/12/20 03:59:55;;;;;;;5.65;2.55;;;11.00;86.80;;;;;;9179742;19;20015;-62
2022/12/20 04:03:01;;;;;;;4.45;2.60;;;11.00;86.80;;;;;;9173334;19;20022;-62
2022/12/20 04:06:06;;;;;;;3.88;2.63;;;11.00;86.80;;;;;;9179235;19;20014;-61
2022/12/20 04:09:10;;;;;;;4.57;2.55;;;11.00;86.80;;;;;;9177827;19;20025;-62
2022/12/20 04:12:19;;;;;;;5.43;2.78;;;11.00;86.90;;;;;;9176281;19;20018;-62
2022/12/20 04:15:23;;;;;;;3.53;2.60;;;11.00;86.90;;;;;;9177654;19;20898;-60
2022/12/20 04:18:31;;;;;;;4.75;2.33;;;11.00;87.00;;;;;;9177419;19;20085;-62
2022/12/20 04:21:37;;;;;;;8.38;2.88;;;11.00;87.00;;;;;;9177589;19;20015;-66
2022/12/20 04:24:41;;;;;;;6.45;2.80;;;11.00;87.10;;;;;;9177929;19;20015;-63
2022/12/20 04:27:56;;;;;;;5.53;2.53;;;11.00;87.10;;;;;;9177272;19;20011;-64
2022/12/20 04:31:00;;;;;;;5.22;2.47;;;11.00;87.20;;;;;;9177211;19;20034;-62
2022/12/20 04:34:08;;;;;;;6.45;2.50;;;11.00;87.20;;;;;;9178351;19;20014;-61
2022/12/20 04:37:12;;;;;;;6.75;2.65;;;11.00;87.20;;;;;;9174831;19;20039;-64
2022/12/20 04:40:26;;;;;;;3.88;2.17;;;11.10;87.30;;;;;;9177153;19;20686;-61
2022/12/20 04:43:33;;;;;;;6.13;2.72;;;11.10;87.30;;;;;;9177591;19;20022;-66
2022/12/20 04:46:39;;;;;;;4.10;2.15;;;11.00;87.20;;;;;;9176929;19;20359;-64
2022/12/20 04:49:49;;;;;;;3.05;2.30;;;11.10;87.30;;;;;;9177068;19;20011;-61
2022/12/20 04:56:11;;;;;;;6.45;2.80;;;11.00;87.30;;;;;;9174057;19;20015;-63
2022/12/20 04:59:14;;;;;;;4.00;2.20;;;11.10;87.90;;;;;;9176846;19;20012;-63
2022/12/20 05:02:21;;;;;;;3.53;2.17;;;11.10;87.40;;;;;;9172064;19;20051;-62
2022/12/20 05:05:35;;;;;;;6.63;2.67;;;11.00;87.30;;;;;;9177454;19;20482;-62
2022/12/20 05:08:39;;;;;;;3.58;2.50;;;11.10;87.40;;;;;;9174911;19;20025;-62
2022/12/20 05:11:44;;;;;;;4.22;2.15;;;11.00;87.30;;;;;;9177361;19;20046;-63
2022/12/20 05:14:48;;;;;;;9.05;2.60;;;11.00;87.30;;;;;;9173761;19;20011;-66
2022/12/20 05:17:58;;;;;;;5.32;2.20;;;11.00;87.30;;;;;;9175389;19;20056;-62
2022/12/20 05:28:03;;;;;;;7.47;2.38;;;11.10;87.50;;;;;;9175690;19;20026;-65
2022/12/20 05:31:10;;;;;;;4.90;2.35;;;11.10;87.40;;;;;;9176475;19;20050;-61
2022/12/20 05:34:14;;;;;;;;;;;11.10;87.40;;;;;;9176401;19;20014;-63
2022/12/20 05:37:25;;;;;;;3.67;2.42;;;11.10;87.50;;;;;;9167281;19;19926;-61
2022/12/20 05:40:30;;;;;;;4.82;2.53;;;11.10;87.30;;;;;;9175297;19;20077;-63
2022/12/20 05:43:35;;;;;;;7.95;2.67;;;11.10;87.40;;;;;;9175307;19;20082;-62
2022/12/20 05:46:40;;;;;;;7.65;2.63;;;11.10;87.40;;;;;;9175170;19;20486;-61
2022/12/20 05:49:49;;;;;;;4.93;2.72;;;11.10;87.50;;;;;;9174667;19;20015;-62
2022/12/20 05:52:55;;;;;;;;;;;11.10;87.50;;;;;;9174429;19;20139;-62
2022/12/20 05:56:01;;;;;;;4.00;2.03;;;11.10;87.40;;;;;;9173061;19;19935;-62
2022/12/20 05:59:11;;;;;;;7.95;2.60;;;11.10;87.40;;;;;;9173621;19;20052;-63
2022/12/20 06:02:16;;;;;;;5.90;2.83;;;11.10;87.40;;;;;;9172486;19;20049;-62
2022/12/20 06:05:21;;;;;;;3.72;2.15;;;11.10;87.40;;;;;;9189670;19;20018;-61
2022/12/20 06:08:28;;;;;;;4.38;2.42;;;11.20;87.50;;;;;;9190520;19;20066;-62
2022/12/20 06:11:33;;;;;;;6.43;2.40;;;11.20;87.50;;;;;;9188771;19;20371;-62
2022/12/20 06:14:41;;;;;;;5.68;2.20;;;11.10;87.40;;;;;;9189569;19;20026;-62
2022/12/20 06:17:48;;;;;;;5.35;2.45;;;11.20;87.50;;;;;;9191459;19;20382;-63
2022/12/20 06:20:52;;;;;;;4.57;2.53;;;11.20;87.50;;;;;;9191869;19;20365;-62
2022/12/20 06:24:01;;;;;;;5.43;2.80;;;11.20;87.50;;;;;;9189295;19;20146;-62
2022/12/20 06:27:07;;;;;;;6.53;2.83;;;11.20;87.50;;;;;;9189956;19;20078;-62
2022/12/20 06:30:12;;;;;;;8.07;2.92;;;11.20;87.60;;;;;;9190125;19;20021;-63
2022/12/20 06:33:35;;;;;;;8.43;2.92;;;11.20;87.50;;;;;;9190476;19;20015;-62
2022/12/20 06:36:39;;;;;;;4.38;2.72;;;11.30;87.60;;;;;;9188615;19;20078;-63
2022/12/20 06:39:48;;;;;;;4.28;2.45;;;11.20;87.50;;;;;;9191885;19;20022;-61
2022/12/20 06:42:52;;;;;;;6.93;2.63;;;11.30;87.60;;;;;;9190817;19;20019;-62
2022/12/20 06:45:59;;;;;;;9.13;3.20;;;11.30;87.60;;;;;;9190441;19;20018;-61
2022/12/20 06:49:03;;;;;;;;;;;11.30;87.60;;;;;;9192842;19;20018;-64
2022/12/20 06:52:07;;;;;;;6.03;2.95;;;11.20;87.70;;;;;;9187128;19;19915;-61
2022/12/20 06:55:23;;;;;;;4.97;2.60;;;11.20;87.50;;;;;;9189411;19;20027;-62
2022/12/20 06:58:28;;;;;;;3.63;2.38;;;11.20;87.60;;;;;;9190677;19;20019;-63
2022/12/20 07:01:32;;;;;;;5.93;2.85;;;11.20;87.70;;;;;;9181878;19;20377;-62
2022/12/20 07:04:36;;;;;;;7.72;2.95;;;11.20;87.70;;;;;;9188823;19;20499;-63
2022/12/20 07:07:40;;;;;;;8.77;2.60;;;11.20;87.80;;;;;;9189530;19;20022;-64
2022/12/20 07:10:51;;;;;;;5.68;2.75;;;11.20;87.80;;;;;;9186639;19;20011;-61
2022/12/20 07:13:56;;;;;;;4.72;2.47;;;11.20;87.80;;;;;;9173370;19;20014;-62
2022/12/20 07:17:00;;;;;;;9.30;2.97;;;11.20;87.90;;;;;;9173108;19;20017;-62
2022/12/20 07:20:06;;;;;;;;;;;11.20;87.90;;;;;;9168822;19;20014;-65
2022/12/20 07:23:17;;;;;;;9.48;2.70;;;11.20;87.90;;;;;;9163663;19;20373;-67
2022/12/20 07:26:23;;;;;;;5.30;3.00;;;11.20;87.70;;;;;;9161774;19;20022;-70
2022/12/20 07:29:28;;;;;;;5.18;2.85;;;11.20;87.80;;;;;;9164322;19;20022;-65
2022/12/20 07:32:32;;;;;;;6.53;3.35;;;11.20;87.80;;;;;;9165145;19;20025;-65
2022/12/20 07:35:36;;;;;;;6.45;2.58;;;11.20;87.80;;;;;;9163272;19;20074;-66
2022/12/20 07:38:39;;;;;;;;;;;11.20;87.90;;;;;;9174915;19;20022;-66
2022/12/20 07:41:45;;;;;;;6.82;2.80;;;11.20;87.90;;;;;;9175418;19;19918;-66
2022/12/20 07:44:53;;;;;;;7.05;2.90;;;11.20;87.80;;;;;;9169306;19;20014;-65
2022/12/20 07:47:56;;;;;;;4.85;2.95;;;11.20;87.80;;;;;;9169977;19;20435;-65
2022/12/20 07:51:09;;;;;;;7.43;3.45;;;11.20;87.90;;;;;;9173783;19;20018;-65
2022/12/20 07:54:17;;;;;;;9.30;2.33;;;11.20;87.90;;;;;;9172254;19;20018;-68
2022/12/20 07:57:28;;;;;;;3.38;2.65;;;11.20;87.90;;;;;;9164910;19;20014;-66
2022/12/20 08:00:32;;;;;;;9.80;2.80;;;11.20;87.90;;;;;;9162133;19;20014;-69
2022/12/20 08:03:39;;;;;;;;;;;11.20;87.90;;;;;;9176098;19;20014;-68
2022/12/20 08:06:43;;;;;;;6.03;2.90;;;11.20;87.90;;;;;;9171630;19;19914;-64
2022/12/20 08:09:48;;;;;;;8.52;2.42;;;11.20;87.80;;;;;;9171986;19;20027;-64
2022/12/20 08:12:54;;;;;;;11.68;3.22;;;11.20;87.80;;;;;;9168070;19;20022;-69
2022/12/20 08:15:58;;;;;;;3.97;2.50;;;11.20;87.80;;;;;;9172598;19;20833;-66
2022/12/20 08:19:02;;;;;;;;;;;11.20;87.80;;;;;;9170038;19;20550;-67
2022/12/20 08:22:06;;;;;;;8.27;3.30;;;11.30;87.90;;;;;;9169334;19;19911;-64
2022/12/20 08:25:10;;;;;;;7.40;2.97;;;11.30;87.80;;;;;;9176996;19;20455;-67
2022/12/20 08:28:16;;;;;;;7.55;2.60;;;11.30;87.80;;;;;;9174602;19;20015;-68
2022/12/20 08:31:20;;;;;;;6.85;2.90;;;11.30;87.80;;;;;;9176641;19;20006;-65
2022/12/20 08:34:24;;;;;;;4.72;2.38;;;11.40;87.80;;;;;;9177482;19;20056;-66
2022/12/20 08:37:27;;;;;;;5.00;2.60;;;11.40;87.70;;;;;;9172966;19;20027;-66
2022/12/20 08:40:31;;;;;;;8.10;2.58;;;11.40;87.70;;;;;;9178989;19;20023;-66
2022/12/20 08:43:37;;;;;;;7.55;2.40;;;11.40;87.60;;;;;;9146628;19;20014;-66
2022/12/20 08:46:41;;;;;;;6.57;2.88;;;11.50;87.60;;;;;;9176911;19;20043;-66
2022/12/20 08:49:45;;;;;;;6.82;2.10;;;11.50;87.60;;;;;;9176601;19;20090;-68
2022/12/20 08:52:51;;;;;;;5.03;2.40;;;11.60;87.50;;;;;;9177843;19;20043;-65
2022/12/20 08:55:55;;;;;;;6.05;2.88;;;11.60;87.50;;;;;;9175400;19;20015;-66
2022/12/20 08:59:01;;;;;;;6.85;2.40;;;11.60;87.40;;;;;;9177550;19;20483;-68
2022/12/20 09:02:05;;;;;;;4.90;2.08;;;11.60;87.30;;;;;;9173262;19;20047;-66
2022/12/20 09:05:10;;;;;;;5.63;2.45;;;11.60;87.30;;;;;;9176344;19;20024;-67
2022/12/20 09:08:15;;;;;;;4.25;2.08;;;11.60;87.30;;;;;;9171742;19;20022;-66
2022/12/20 09:11:21;;;;;;;5.65;2.33;;;11.70;87.20;;;;;;9167184;19;20340;-66
2022/12/20 09:14:26;;;;;;;6.72;2.72;;;11.70;87.10;;;;;;9163793;19;20026;-66
2022/12/20 09:17:30;;;;;;;4.50;2.20;;;11.70;87.10;;;;;;9160234;19;20023;-66
2022/12/20 09:20:34;;;;;;;9.45;2.60;;;11.80;87.10;;;;;;9167117;19;20027;-66
2022/12/20 09:23:39;;;;;;;4.68;1.83;;;11.80;87.00;;;;;;9167184;19;20030;-67
2022/12/20 09:26:43;;;;;;;4.25;2.00;;;11.80;87.00;;;;;;9170568;19;20026;-66
2022/12/20 09:29:51;;;;;;;5.50;2.70;;;11.80;86.90;;;;;;9161733;19;20117;-66
2022/12/20 09:32:55;;;;;;;8.40;2.25;;;11.90;86.90;;;;;;9167932;19;20085;-66
2022/12/20 09:36:13;;;;;;;3.40;2.03;;;11.90;86.90;;;;;;9160696;19;20478;-68
2022/12/20 09:39:16;;;;;;;8.52;2.30;;;11.90;86.90;;;;;;9161675;19;20018;-67
2022/12/20 09:42:25;;;;;;;3.92;2.17;;;11.90;86.80;;;;;;9162455;19;20786;-66
2022/12/20 09:45:36;;;;;;;5.90;2.20;;;11.90;86.80;;;;;;9166207;19;20380;-70
2022/12/20 09:48:40;;;;;;;5.30;2.53;;;12.00;86.80;;;;;;9162623;19;20015;-67
2022/12/20 09:52:11;;;;;;;4.28;2.20;;;12.00;86.70;;;;;;9156443;19;20027;-67
2022/12/20 09:55:23;;;;;;;4.78;2.38;;;12.00;86.70;;;;;;9166067;19;20018;-66
2022/12/20 09:58:43;;;;;;;12.18;4.63;;;12.00;86.70;;;;;;9161295;19;20078;-68
2022/12/20 10:01:50;;;;;;;5.55;1.80;;;12.00;86.70;;;;;;9162633;19;20483;-67
2022/12/20 10:04:55;;;;;;;6.05;2.15;;;12.00;86.60;;;;;;9169741;19;20102;-63
2022/12/20 10:08:06;;;;;;;5.00;2.05;;;11.90;86.70;;;;;;9172086;19;20022;-66
2022/12/20 10:11:16;;;;;;;4.30;2.15;;;11.90;86.60;;;;;;9163222;19;20006;-65
2022/12/20 10:14:35;;;;;;;4.70;2.30;;;11.90;86.60;;;;;;9157365;19;20356;-65
2022/12/20 10:17:56;;;;;;;5.38;2.38;;;11.90;86.70;;;;;;9164150;19;20052;-65
2022/12/20 10:21:09;;;;;;;11.68;2.58;;;11.90;86.70;;;;;;9165640;19;20010;-65
2022/12/20 10:24:18;;;;;;;4.93;2.17;;;11.90;86.70;;;;;;9167431;19;20022;-63
2022/12/20 10:27:22;;;;;;;11.52;2.92;;;11.90;86.70;;;;;;9164395;19;20030;-67
2022/12/20 10:30:28;;;;;;;4.68;2.10;;;11.80;86.70;;;;;;9165591;19;20345;-66
2022/12/20 10:33:35;;;;;;;6.10;2.20;;;11.80;86.80;;;;;;9166002;19;20018;-69
2022/12/20 10:36:39;;;;;;;8.00;2.47;;;11.80;86.80;;;;;;9163404;19;20050;-67
2022/12/20 10:39:44;;;;;;;5.15;2.20;;;11.80;86.80;;;;;;9166804;19;20014;-65
2022/12/20 10:42:48;;;;;;;4.22;2.53;;;11.80;86.90;;;;;;9167059;19;20348;-64
2022/12/20 10:45:58;;;;;;;11.35;2.65;;;11.80;86.90;;;;;;9163438;19;20472;-65
2022/12/20 10:49:29;;;;;;;10.07;2.50;;;11.70;87.00;;;;;;9171178;19;20027;-65
2022/12/20 10:52:33;;;;;;;7.15;2.97;;;11.70;87.00;;;;;;9178212;19;20484;-65
2022/12/20 10:55:39;;;;;;;4.80;2.60;;;11.70;87.00;;;;;;9177342;19;20023;-64
2022/12/20 10:58:43;;;;;;;5.85;2.80;;;11.70;87.10;;;;;;9174010;19;20018;-63
2022/12/20 11:01:49;;;;;;;8.35;2.75;;;11.70;87.10;;;;;;9167131;19;20632;-65
2022/12/20 11:05:02;;;;;;;5.55;2.45;;;11.70;87.20;;;;;;9176214;19;20025;-65
2022/12/20 11:08:15;;;;;;;5.30;2.20;;;11.60;87.20;;;;;;9177029;19;20731;-66
2022/12/20 11:11:39;;;;;;;6.75;2.97;;;11.60;87.20;;;;;;9177322;19;20044;-64
2022/12/20 11:14:45;;;;;;;5.07;2.13;;;11.60;87.10;;;;;;9175345;19;20014;-65
2022/12/20 11:17:54;;;;;;;7.55;2.00;;;11.60;87.20;;;;;;9172180;19;20025;-62
2022/12/20 11:21:11;;;;;;;7.35;2.90;;;11.60;87.20;;;;;;9171369;19;20015;-66
2022/12/20 11:24:31;;;;;;;11.52;2.90;;;11.60;87.30;;;;;;9179466;19;20869;-63
2022/12/20 11:27:43;;;;;;;6.35;2.25;;;11.60;87.30;;;;;;9170460;19;20022;-64
2022/12/20 11:30:54;;;;;;;8.23;2.63;;;11.60;87.30;;;;;;9163938;19;20018;-63
2022/12/20 11:34:11;;;;;;;4.55;2.20;;;11.50;87.30;;;;;;9162725;19;20048;-63
2022/12/20 11:37:22;;;;;;;7.05;2.83;;;11.50;87.40;;;;;;9165189;19;20019;-65
2022/12/20 11:40:32;;;;;;;7.63;2.30;;;11.60;87.50;;;;;;9167282;19;20022;-64
2022/12/20 11:44:02;;;;;;;10.18;2.60;;;11.60;87.60;;;;;;9163813;19;20018;-62
2022/12/20 11:47:47;;;;;;;5.28;2.90;;;11.50;87.60;;;;;;9167233;19;20015;-62
2022/12/20 11:51:02;;;;;;;8.88;2.92;;;11.50;87.60;;;;;;9175947;19;20023;-60
2022/12/20 11:54:14;;;;;;;10.32;3.00;;;11.50;87.60;;;;;;9169931;19;20011;-62
2022/12/20 11:57:22;;;;;;;4.80;2.60;;;11.50;87.70;;;;;;9174245;19;20332;-62
2022/12/20 12:00:27;;;;;;;8.75;2.88;;;11.50;87.60;;;;;;9166504;19;20026;-62
2022/12/20 12:03:35;;;;;;;4.82;2.47;;;11.50;87.70;;;;;;9170766;19;20015;-62
2022/12/20 12:06:44;;;;;;;4.68;2.83;;;11.50;87.70;;;;;;9173658;19;20014;-63
2022/12/20 12:09:57;;;;;;;5.85;3.13;;;11.50;87.70;;;;;;9173342;19;20042;-62
2022/12/20 12:13:07;;;;;;;4.68;2.78;;;11.50;87.80;;;;;;9177385;19;20015;-62
2022/12/20 12:16:15;;;;;;;8.43;2.90;;;11.50;87.80;;;;;;9170999;19;20114;-61
2022/12/20 12:19:19;;;;;;;5.45;2.88;;;11.50;87.80;;;;;;9177645;19;20026;-62
2022/12/20 12:22:30;;;;;;;4.15;2.83;;;11.50;87.80;;;;;;9178590;19;20018;-64
2022/12/20 12:25:36;;;;;;;5.78;3.22;;;11.50;87.90;;;;;;9172581;19;20019;-63
2022/12/20 12:28:40;;;;;;;4.57;3.20;;;11.50;87.90;;;;;;9166652;19;20018;-60
2022/12/20 12:31:45;;;;;;;;;;;11.50;87.90;;;;;;9164493;19;20010;-60
2022/12/20 12:35:02;;;;;;;7.07;2.67;;;11.50;88.00;;;;;;9168796;19;19949;-62
2022/12/20 12:38:23;;;;;;;4.80;3.45;;;11.50;87.90;;;;;;9159994;19;20026;-63
2022/12/20 12:41:57;;;;;;;6.90;2.75;;;11.50;88.00;;;;;;9169199;19;20021;-62
2022/12/20 12:45:03;;;;;;;;;;;11.50;88.10;;;;;;9166847;19;20022;-63
2022/12/20 12:48:15;;;;;;;6.90;3.08;;;11.50;88.00;;;;;;9162734;19;19936;-63
2022/12/20 12:51:27;;;;;;;5.50;2.63;;;11.50;88.00;;;;;;9164521;19;20042;-60
2022/12/20 12:54:37;;;;;;;5.25;2.85;;;11.50;88.00;;;;;;9169088;19;20019;-61
2022/12/20 12:57:59;;;;;;;9.88;3.10;;;11.50;88.70;;;;;;9164724;19;20022;-62
2022/12/20 13:01:07;;;;;;;6.57;2.90;;;11.50;88.20;;;;;;9160066;19;20030;-63
2022/12/20 13:04:24;;;;;;;5.72;3.33;;;11.50;88.20;;;;;;9161562;19;20031;-62
2022/12/20 13:07:42;;;;;;;6.38;3.22;;;11.50;88.20;;;;;;9166490;19;20023;-64
2022/12/20 13:11:01;;;;;;;4.05;2.47;;;11.50;88.20;;;;;;9170975;19;20024;-63
2022/12/20 13:14:53;;;;;;;5.05;3.45;;;11.50;88.30;;;;;;9166965;19;20022;-62
2022/12/20 13:17:58;;;;;;;7.07;3.10;;;11.50;88.40;;;;;;9165699;19;20601;-62
2022/12/20 13:21:32;;;;;;;5.82;2.70;;;11.50;88.20;;;;;;9170193;19;20091;-64
2022/12/20 13:24:40;;;;;;;4.57;2.70;;;11.50;88.40;;;;;;9168264;19;20471;-62
2022/12/20 13:27:44;;;;;;;11.13;3.17;;;11.50;88.30;;;;;;9170580;19;20018;-63
2022/12/20 13:31:25;;;;;;;5.28;2.70;;;11.50;88.40;;;;;;9170369;19;20022;-62
2022/12/20 13:34:55;;;;;;;7.55;3.00;;;11.50;88.50;;;;;;9169284;19;20011;-65
2022/12/20 13:38:03;;;;;;;6.60;3.00;;;11.50;88.50;;;;;;9164200;19;20033;-65
2022/12/20 13:41:18;;;;;;;8.18;3.13;;;11.50;88.50;;;;;;9168360;19;20432;-65
2022/12/20 13:44:41;;;;;;;6.57;3.15;;;11.50;88.60;;;;;;9168811;19;20018;-64
2022/12/20 13:47:49;;;;;;;10.75;4.65;;;11.50;88.70;;;;;;9169908;19;20023;-62
2022/12/20 13:50:56;;;;;;;4.78;2.63;;;11.50;88.60;;;;;;9169410;19;20494;-63
2022/12/20 13:54:03;;;;;;;6.32;3.13;;;11.50;88.60;;;;;;9166491;19;20010;-62
2022/12/20 13:57:08;;;;;;;5.88;2.83;;;11.60;88.70;;;;;;9166800;19;20019;-63
2022/12/20 14:00:17;;;;;;;4.55;3.10;;;11.50;88.60;;;;;;9168558;19;20090;-61
2022/12/20 14:03:24;;;;;;;7.97;3.88;;;11.50;88.70;;;;;;9167323;19;20038;-62
2022/12/20 14:06:30;;;;;;;4.85;2.90;;;11.60;88.70;;;;;;9162022;19;20043;-64
2022/12/20 14:09:36;;;;;;;7.97;3.20;;;11.60;88.70;;;;;;9167433;19;20030;-63
2022/12/20 14:12:45;;;;;;;4.53;2.90;;;11.60;88.70;;;;;;9173485;19;20336;-62
2022/12/20 14:15:50;;;;;;;5.60;2.88;;;11.60;88.80;;;;;;9163379;19;20090;-63
2022/12/20 14:19:03;;;;;;;4.75;2.95;;;11.60;88.80;;;;;;9167597;19;20018;-63
2022/12/20 14:22:11;;;;;;;4.50;2.92;;;11.60;88.90;;;;;;9167216;19;20018;-62
2022/12/20 14:25:19;;;;;;;6.15;3.20;;;11.60;88.90;;;;;;9173459;19;20014;-62
2022/12/20 14:28:32;;;;;;;7.13;3.25;;;11.60;88.90;;;;;;9176311;19;20019;-62
2022/12/20 14:31:41;;;;;;;6.50;3.03;;;11.60;88.90;;;;;;9178645;19;20073;-62
2022/12/20 14:34:45;;;;;;;5.95;3.20;;;11.60;88.90;;;;;;9180411;19;20034;-61
2022/12/20 14:37:57;;;;;;;12.43;3.50;;;11.60;88.90;;;;;;9180952;19;20357;-61
2022/12/20 14:41:01;;;;;;;8.13;3.33;;;11.60;89.00;;;;;;9181829;19;20007;-66
2022/12/20 14:44:16;;;;;;;12.63;3.10;;;11.60;88.90;;;;;;9180902;19;20018;-64
2022/12/20 14:47:25;;;;;;;6.70;3.10;;;11.60;89.00;;;;;;9178403;19;20100;-63
2022/12/20 14:50:32;;;;;;;8.73;3.47;;;11.60;89.00;;;;;;9179386;19;20022;-61
2022/12/20 14:53:40;;;;;;;6.07;3.13;;;11.60;89.00;;;;;;9178068;19;20022;-65
2022/12/20 14:56:47;;;;;;;4.70;3.05;;;11.60;89.10;;;;;;9177483;19;20021;-62
2022/12/20 15:00:05;;;;;;;5.43;3.17;;;11.60;89.10;;;;;;9174476;19;20047;-62
2022/12/20 15:03:18;;;;;;;4.93;2.75;;;11.60;89.20;;;;;;9172708;19;20509;-61
2022/12/20 15:06:34;;;;;;;7.57;3.75;;;11.60;89.10;;;;;;9180842;19;20022;-61
2022/12/20 15:09:43;;;;;;;9.68;3.45;;;11.60;89.20;;;;;;9176833;19;20498;-62
2022/12/20 15:12:47;;;;;;;4.93;3.40;;;11.60;89.20;;;;;;9176970;19;20050;-63
2022/12/20 15:15:50;;;;;;;;;;;11.60;89.20;;;;;;9175393;19;20011;-62
2022/12/20 15:18:56;;;;;;;6.80;3.17;;;11.60;89.20;;;;;;9177673;19;19923;-62
2022/12/20 15:22:00;;;;;;;5.05;3.40;;;11.60;89.10;;;;;;9177638;19;20018;-61
2022/12/20 15:25:16;;;;;;;9.07;4.97;;;11.60;89.20;;;;;;9178661;19;20014;-63
2022/12/20 15:28:22;;;;;;;5.50;3.15;;;11.60;89.30;;;;;;9175991;19;20034;-61
2022/12/20 15:31:27;;;;;;;6.75;2.95;;;11.60;89.20;;;;;;9176410;19;20487;-62
2022/12/20 15:34:39;;;;;;;6.15;3.42;;;11.60;89.30;;;;;;9174686;19;20025;-63
2022/12/20 15:37:43;;;;;;;7.25;3.03;;;11.60;89.30;;;;;;9175546;19;20022;-62
2022/12/20 15:40:51;;;;;;;10.30;3.22;;;11.60;89.30;;;;;;9181086;19;20483;-63
2022/12/20 15:43:58;;;;;;;6.65;3.58;;;11.60;89.30;;;;;;9179393;19;20019;-61
2022/12/20 15:47:02;;;;;;;8.30;4.40;;;11.60;89.30;;;;;;9174042;19;20014;-62
2022/12/20 15:50:07;;;;;;;;;;;11.60;89.30;;;;;;9174659;19;20014;-61
2022/12/20 15:53:14;;;;;;;5.97;3.50;;;11.60;89.30;;;;;;9178189;19;19946;-62
2022/12/20 15:56:22;;;;;;;4.55;3.13;;;11.60;89.20;;;;;;9175675;19;20569;-64
2022/12/20 15:59:26;;;;;;;6.35;3.17;;;11.60;89.30;;;;;;9175802;19;20042;-64
2022/12/20 16:02:51;;;;;;;6.85;3.45;;;11.60;89.40;;;;;;9169287;19;20483;-63
2022/12/20 16:05:55;;;;;;;8.63;3.90;;;11.60;89.40;;;;;;9168386;19;20493;-64
2022/12/20 16:08:59;;;;;;;5.97;3.60;;;11.60;89.40;;;;;;9166687;19;20010;-68
2022/12/20 16:12:05;;;;;;;6.75;3.53;;;11.60;89.50;;;;;;9162137;19;20023;-68
2022/12/20 16:15:20;;;;;;;6.97;3.65;;;11.60;89.40;;;;;;9160729;19;21547;-61
2022/12/20 16:18:24;;;;;;;6.25;3.55;;;11.60;89.50;;;;;;9159944;19;20014;-66
2022/12/20 16:21:31;;;;;;;7.15;4.63;;;11.60;89.50;;;;;;9162130;19;20019;-65
2022/12/20 16:24:35;;;;;;;6.55;3.33;;;11.60;89.50;;;;;;9158191;19;20145;-64
2022/12/20 16:27:40;;;;;;;5.50;3.28;;;11.60;89.50;;;;;;9159538;19;20095;-63
2022/12/20 16:30:44;;;;;;;5.22;3.58;;;11.60;89.60;;;;;;9163615;19;20018;-62
2022/12/20 16:33:56;;;;;;;5.55;4.03;;;11.60;89.60;;;;;;9165391;19;20086;-63